Time;durP1;ratioP1;P1;durP2;ratioP2;P2;SDS_P1;SDS_P2;PMS_P1;PMS_P2;Temp;Humidity;BMP_temperature;BMP_pressure;BME280_temperature;BME280_humidity;BME280_pressure;Samples;Min_cycle;Max_cycle;Signal;HPM_P1;HPM_P2
2022/01/27 00:00:43;;;;;;;3.30;2.50;;;;;;;19.59;43.09;97691.38;10391340;28;20115;-49
2022/01/27 00:06:08;;;;;;;4.03;2.72;;;;;;;19.58;43.00;97685.16;10394660;28;20288;-52
2022/01/27 00:11:27;;;;;;;4.50;2.78;;;;;;;19.55;43.14;97674.97;10391733;28;20045;-52
2022/01/27 00:16:58;;;;;;;3.88;2.80;;;;;;;19.54;43.09;97676.03;10400735;28;20037;-52
2022/01/27 00:22:17;;;;;;;3.72;2.42;;;;;;;19.53;43.16;97669.84;10399535;28;20061;-51
2022/01/27 00:27:37;;;;;;;2.92;2.25;;;;;;;19.51;43.23;97679.38;10395690;28;20599;-51
2022/01/27 00:32:56;;;;;;;4.80;2.63;;;;;;;19.51;43.18;97676.66;10384375;28;20053;-52
2022/01/27 00:38:16;;;;;;;3.70;2.47;;;;;;;19.49;43.08;97679.66;10402343;28;20071;-50
2022/01/27 00:43:35;;;;;;;3.72;2.40;;;;;;;19.47;42.85;97676.47;10408025;28;20451;-52
2022/01/27 00:48:55;;;;;;;3.22;2.42;;;;;;;19.47;43.07;97675.66;10407502;28;20053;-52
2022/01/27 00:54:21;;;;;;;4.22;2.85;;;;;;;19.45;43.06;97672.47;10407643;28;20491;-52
2022/01/27 00:59:58;;;;;;;2.90;2.28;;;;;;;19.44;43.00;97650.03;10396437;28;20049;-50
2022/01/27 01:33:04;;;;;;;2.80;2.47;;;;;;;19.35;42.82;97630.25;10403552;28;20080;-52
2022/01/27 01:38:26;;;;;;;3.05;2.13;;;;;;;19.35;42.90;97630.25;10400886;28;20054;-49
2022/01/27 01:43:46;;;;;;;2.88;2.20;;;;;;;19.33;42.82;97629.75;10392332;28;20045;-52
2022/01/27 01:49:06;;;;;;;2.30;1.92;;;;;;;19.32;43.09;97638.94;10409210;28;20048;-52
2022/01/27 01:54:25;;;;;;;2.55;2.17;;;;;;;19.31;42.85;97645.47;10400998;28;20044;-52
2022/01/27 01:59:45;;;;;;;2.72;2.28;;;;;;;19.30;42.84;97611.44;10405714;28;20048;-52
2022/01/27 02:05:06;;;;;;;2.42;2.22;;;;;;;19.27;42.95;97618.25;10403874;28;20053;-52
2022/01/27 02:22:06;;;;;;;2.80;2.20;;;;;;;19.23;43.06;97595.66;10394884;28;20163;-50
2022/01/27 02:27:26;;;;;;;2.97;1.95;;;;;;;19.22;42.95;97604.06;10389710;28;20103;-50
2022/01/27 02:32:45;;;;;;;2.75;1.92;;;;;;;19.21;42.90;97586.22;10402373;28;20049;-50
2022/01/27 02:38:06;;;;;;;3.42;2.50;;;;;;;19.19;42.77;97589.25;10399514;28;20053;-52
2022/01/27 02:43:26;;;;;;;2.55;2.20;;;;;;;19.17;42.74;97580.66;10393253;28;20485;-51
2022/01/27 02:48:45;;;;;;;3.25;2.25;;;;;;;19.17;42.75;97556.34;10395548;28;20053;-52
2022/01/27 02:54:05;;;;;;;2.92;1.95;;;;;;;19.14;42.76;97557.72;10405984;28;20056;-52
2022/01/27 02:59:24;;;;;;;2.58;2.17;;;;;;;19.12;42.64;97541.03;10393379;28;20050;-51
2022/01/27 03:04:44;;;;;;;2.63;2.20;;;;;;;19.11;42.57;97544.03;10397281;28;20100;-51
2022/01/27 03:10:04;;;;;;;2.40;2.20;;;;;;;19.11;42.77;97527.81;10396090;28;20054;-52
2022/01/27 03:15:23;;;;;;;2.42;2.00;;;;;;;19.10;42.76;97523.53;10400865;28;20049;-52
2022/01/27 03:20:43;;;;;;;3.45;2.20;;;;;;;19.08;42.80;97517.66;10399779;28;20049;-53
2022/01/27 03:26:03;;;;;;;2.35;2.13;;;;;;;19.07;42.91;97530.34;10393017;28;20046;-52
2022/01/27 03:31:22;;;;;;;2.10;1.90;;;;;;;19.05;42.71;97535.25;10398608;28;20064;-50
2022/01/27 03:36:43;;;;;;;2.20;2.00;;;;;;;19.04;42.61;97517.44;10402439;28;20049;-52
2022/01/27 03:42:04;;;;;;;2.35;1.88;;;;;;;19.03;42.56;97518.53;10393684;28;20065;-52
2022/01/27 03:47:23;;;;;;;2.55;2.05;;;;;;;19.01;42.52;97512.63;10405459;28;20041;-52
2022/01/27 03:52:42;;;;;;;2.25;1.92;;;;;;;19.01;42.69;97517.25;10397708;28;20560;-49
2022/01/27 03:58:02;;;;;;;2.38;2.15;;;;;;;18.98;42.56;97518.66;10391441;28;20056;-52
2022/01/27 04:03:23;;;;;;;2.58;2.08;;;;;;;18.99;42.53;97514.84;10401273;28;20053;-50
2022/01/27 04:08:42;;;;;;;2.10;1.90;;;;;;;18.97;42.54;97508.94;10397882;28;20060;-52
2022/01/27 04:14:02;;;;;;;3.28;2.03;;;;;;;18.95;42.40;97493.06;10402589;28;20049;-52
2022/01/27 04:19:22;;;;;;;2.13;1.90;;;;;;;18.94;42.42;97474.47;10399924;28;20057;-53
2022/01/27 04:24:41;;;;;;;2.10;1.90;;;;;;;18.91;42.57;97465.06;10396883;28;20463;-52
2022/01/27 04:30:03;;;;;;;2.33;1.90;;;;;;;18.91;42.44;97456.16;10399067;28;20053;-51
2022/01/27 04:35:25;;;;;;;2.72;2.08;;;;;;;18.90;42.42;97451.88;10398101;28;20416;-52
2022/01/27 04:41:15;;;;;;;1.85;1.65;;;;;;;18.89;42.36;97455.66;10398873;28;20048;-51
2022/01/27 04:51:48;;;;;;;2.00;1.80;;;;;;;18.86;42.39;97450.91;10411884;28;20116;-52
2022/01/27 04:57:08;;;;;;;2.15;1.80;;;;;;;18.85;42.22;97444.69;10407349;28;20608;-52
2022/01/27 05:02:39;;;;;;;1.70;1.60;;;;;;;18.82;42.21;97444.47;10407222;28;20149;-52
2022/01/27 05:08:01;;;;;;;1.70;1.60;;;;;;;18.83;42.36;97432.59;10405379;28;20053;-52
2022/01/27 05:13:23;;;;;;;1.85;1.40;;;;;;;18.80;42.19;97428.59;10405878;28;20556;-51
2022/01/27 05:18:43;;;;;;;2.17;1.98;;;;;;;18.79;42.30;97418.88;10394827;28;20099;-50
2022/01/27 05:24:03;;;;;;;2.10;1.90;;;;;;;18.79;42.42;97418.88;10393727;28;20041;-50
2022/01/27 05:29:23;;;;;;;1.92;1.70;;;;;;;18.79;42.35;97418.88;10398674;28;20103;-51
2022/01/27 05:34:42;;;;;;;2.30;1.83;;;;;;;18.79;42.23;97399.97;10400297;28;20986;-52
2022/01/27 05:40:02;;;;;;;1.80;1.70;;;;;;;18.81;42.41;97364.63;10402541;28;20049;-53
2022/01/27 05:45:21;;;;;;;1.77;1.67;;;;;;;18.82;42.33;97360.78;10398313;28;20053;-52
2022/01/27 05:50:41;;;;;;;2.45;1.70;;;;;;;18.86;42.29;97342.91;10394833;28;20048;-51
2022/01/27 05:56:01;;;;;;;3.67;1.80;;;;;;;18.87;42.77;97345.28;10403623;28;20559;-52
2022/01/27 06:01:20;;;;;;;1.98;1.80;;;;;;;18.91;42.82;97356.28;10403117;28;20053;-51
2022/01/27 06:06:40;;;;;;;2.30;1.77;;;;;;;18.93;42.84;97354.06;10406467;28;20058;-49
2022/01/27 06:11:59;;;;;;;2.38;1.65;;;;;;;18.98;43.02;97358.56;10402252;28;20042;-52
2022/01/27 06:17:19;;;;;;;1.73;1.63;;;;;;;19.02;43.32;97340.63;10396172;28;20103;-52
2022/01/27 06:22:39;;;;;;;1.95;1.60;;;;;;;19.05;43.42;97334.59;10394554;28;20045;-52
2022/01/27 06:27:58;;;;;;;1.90;1.67;;;;;;;19.09;43.62;97328.31;10394244;28;20065;-50
2022/01/27 06:33:18;;;;;;;2.15;1.70;;;;;;;19.15;43.67;97340.56;10399497;28;20192;-52
2022/01/27 06:38:37;;;;;;;1.65;1.55;;;;;;;19.20;43.63;97330.75;10399058;28;20049;-52
2022/01/27 06:44:00;;;;;;;1.60;1.50;;;;;;;19.22;43.83;97317.72;10400236;28;20053;-49
2022/01/27 06:49:19;;;;;;;2.90;1.50;;;;;;;19.25;43.43;97306.28;10401351;28;20787;-52
2022/01/27 06:54:39;;;;;;;2.42;1.20;;;;;;;19.28;43.58;97306.47;10378818;28;20424;-52
2022/01/27 06:59:59;;;;;;;2.88;1.42;;;;;;;19.31;43.47;97294.28;10394922;28;20060;-53
2022/01/27 07:05:19;;;;;;;2.13;1.42;;;;;;;19.33;43.45;97279.34;10392398;28;20058;-53
2022/01/27 07:10:38;;;;;;;6.32;2.22;;;;;;;19.36;43.49;97283.31;10392855;28;20616;-53
2022/01/27 07:15:57;;;;;;;7.18;2.08;;;;;;;19.39;43.73;97290.81;10394902;28;20061;-53
2022/01/27 07:21:18;;;;;;;9.50;2.58;;;;;;;19.41;43.59;97288.59;10392722;28;20057;-53
2022/01/27 07:26:37;;;;;;;9.00;3.42;;;;;;;19.46;43.74;97290.34;10385646;28;20068;-53
2022/01/27 07:31:57;;;;;;;8.38;3.35;;;;;;;19.49;43.74;97254.59;10395829;28;20496;-51
2022/01/27 07:37:16;;;;;;;9.23;2.95;;;;;;;19.52;43.52;97264.78;10396777;28;20049;-53
2022/01/27 07:42:35;;;;;;;7.40;3.17;;;;;;;19.55;43.52;97262.25;10386699;28;20045;-51
2022/01/27 07:47:55;;;;;;;9.40;3.40;;;;;;;19.59;43.44;97254.31;10390231;28;20057;-53
2022/01/27 07:53:15;;;;;;;7.68;3.30;;;;;;;19.62;43.37;97266.41;10405200;28;20068;-52
2022/01/27 07:58:38;;;;;;;10.50;3.78;;;;;;;19.65;43.16;97271.19;10405551;28;20053;-53
2022/01/27 08:03:57;;;;;;;12.80;4.10;;;;;;;19.69;43.22;97281.06;10407550;28;20056;-53
2022/01/27 08:09:17;;;;;;;10.65;3.65;;;;;;;19.74;43.12;97277.47;10409542;28;20057;-53
2022/01/27 08:14:37;;;;;;;10.93;3.88;;;;;;;19.76;43.03;97272.53;10393215;28;20057;-51
2022/01/27 08:19:56;;;;;;;9.90;3.60;;;;;;;19.81;43.10;97258.06;10392638;28;20111;-52
2022/01/27 08:25:16;;;;;;;8.13;3.22;;;;;;;19.82;43.06;97260.47;10416243;28;20456;-51
2022/01/27 08:30:42;;;;;;;8.10;3.42;;;;;;;19.88;42.91;97247.59;10407849;28;20056;-52
2022/01/27 08:36:02;;;;;;;8.20;3.55;;;;;;;19.91;42.83;97242.34;10392754;28;20701;-53
2022/01/27 08:41:21;;;;;;;9.82;3.17;;;;;;;19.96;42.88;97257.63;10407366;28;20045;-53
2022/01/27 08:46:41;;;;;;;7.65;3.17;;;;;;;20.00;42.80;97230.75;10395590;28;20046;-53
2022/01/27 08:52:02;;;;;;;7.72;3.38;;;;;;;20.04;42.79;97229.00;10418320;28;20045;-52
2022/01/27 08:57:22;;;;;;;8.10;2.95;;;;;;;20.08;42.75;97225.34;10408950;28;20079;-53
2022/01/27 09:02:41;;;;;;;5.70;2.97;;;;;;;20.11;42.68;97203.09;10408345;28;20608;-53
2022/01/27 09:08:01;;;;;;;8.40;2.78;;;;;;;20.18;42.65;97213.41;10406460;28;20050;-53
2022/01/27 09:13:21;;;;;;;7.43;3.00;;;;;;;20.21;42.65;97220.09;10401958;28;20030;-51
2022/01/27 09:18:41;;;;;;;7.38;2.88;;;;;;;20.26;41.82;97212.63;10399930;28;20049;-53
2022/01/27 09:24:00;;;;;;;9.02;3.08;;;;;;;20.28;41.65;97196.06;10405879;28;20057;-52
2022/01/27 09:29:20;;;;;;;6.60;2.97;;;;;;;20.31;41.52;97190.81;10406266;28;20111;-53
2022/01/27 09:34:40;;;;;;;5.22;2.55;;;;;;;20.34;41.36;97195.56;10406736;28;20053;-51
2022/01/27 09:40:00;;;;;;;5.20;2.80;;;;;;;20.38;41.33;97198.44;10405921;28;20049;-52
2022/01/27 09:45:21;;;;;;;4.35;2.42;;;;;;;20.40;41.37;97201.63;10406255;28;20057;-53
2022/01/27 09:56:02;;;;;;;4.22;2.40;;;;;;;20.43;41.02;97192.88;10390019;28;20095;-53
2022/01/27 10:01:22;;;;;;;4.50;2.60;;;;;;;20.45;41.02;97181.75;10393894;28;20313;-53
2022/01/27 10:06:45;;;;;;;5.15;2.78;;;;;;;20.47;41.03;97182.22;10411450;28;20075;-52
2022/01/27 10:12:05;;;;;;;4.65;2.30;;;;;;;20.48;41.03;97162.13;10403694;28;20520;-53
2022/01/27 10:17:25;;;;;;;4.10;2.30;;;;;;;20.47;40.98;97147.81;10406182;28;20492;-53
2022/01/27 10:23:11;;;;;;;6.25;2.70;;;;;;;20.48;40.89;97160.25;10394652;28;20057;-50
2022/01/27 10:34:03;;;;;;;2.40;1.90;;;;;;;20.51;41.13;97120.91;10398896;28;20045;-53
2022/01/27 10:39:24;;;;;;;5.35;2.10;;;;;;;20.50;41.03;97136.38;10402698;28;20053;-53
2022/01/27 10:44:47;;;;;;;3.70;2.22;;;;;;;20.51;41.17;97129.81;10402744;28;20053;-53
2022/01/27 10:50:07;;;;;;;4.28;2.10;;;;;;;20.52;41.08;97149.56;10395774;28;20060;-53
2022/01/27 10:55:28;;;;;;;5.22;2.20;;;;;;;20.52;40.98;97142.25;10400883;28;20057;-53
2022/01/27 11:00:56;;;;;;;4.30;2.40;;;;;;;20.52;41.07;97117.06;10393430;28;20045;-52
2022/01/27 11:06:16;;;;;;;3.10;2.08;;;;;;;20.52;41.08;97103.53;10417209;28;20063;-53
2022/01/27 11:11:40;;;;;;;4.15;1.98;;;;;;;20.53;41.07;97105.16;10398525;28;20091;-52
2022/01/27 11:17:01;;;;;;;3.80;2.13;;;;;;;20.53;41.02;97091.63;10403616;28;20107;-53
2022/01/27 11:27:45;;;;;;;4.47;2.10;;;;;;;20.53;41.16;97091.63;10398682;28;20053;-53
2022/01/27 11:33:13;;;;;;;3.95;2.03;;;;;;;20.52;41.16;97103.53;10383613;28;20053;-53
2022/01/27 11:38:34;;;;;;;2.30;1.80;;;;;;;20.52;41.36;97084.59;10391385;28;20124;-53
2022/01/27 11:44:19;;;;;;;7.68;3.13;;;;;;;20.52;41.38;97065.66;10404837;28;20056;-53
2022/01/27 11:49:53;;;;;;;9.18;3.75;;;;;;;20.51;41.90;97048.63;10397528;28;20057;-53
2022/01/27 11:55:26;;;;;;;6.18;2.90;;;;;;;20.50;41.60;97060.59;10385679;28;20061;-53
2022/01/27 12:01:04;;;;;;;8.02;3.55;;;;;;;20.51;41.43;97066.78;10397710;28;20068;-52
2022/01/27 12:06:24;;;;;;;7.75;4.10;;;;;;;20.51;42.73;97064.06;10400967;28;20432;-52
2022/01/27 12:11:45;;;;;;;7.10;3.03;;;;;;;20.50;42.82;97073.31;10399141;28;20045;-52
2022/01/27 12:17:08;;;;;;;7.18;3.00;;;;;;;20.52;43.09;97076.47;10397418;28;20060;-52
2022/01/27 12:22:42;;;;;;;6.18;3.35;;;;;;;20.51;43.50;97072.97;10393534;28;20130;-50
2022/01/27 12:28:02;;;;;;;8.18;3.22;;;;;;;20.50;43.63;97067.88;10390294;28;20065;-53
2022/01/27 12:33:22;;;;;;;7.70;3.28;;;;;;;20.49;43.58;97067.09;10401447;28;20061;-53
2022/01/27 12:38:42;;;;;;;8.32;3.15;;;;;;;20.49;43.45;97050.06;10414797;28;20052;-53
2022/01/27 12:44:09;;;;;;;9.30;4.03;;;;;;;20.47;43.50;97042.28;10405069;28;20696;-53
2022/01/27 12:49:48;;;;;;;10.80;3.67;;;;;;;20.45;43.52;97030.19;10395074;28;20046;-53
2022/01/27 12:55:08;;;;;;;;;;;;;;;20.45;43.62;97030.97;10408703;28;20042;-53
2022/01/27 13:00:28;;;;;;;10.38;3.80;;;;;;;20.44;43.33;97036.72;10406386;28;19929;-53
2022/01/27 13:05:50;;;;;;;9.02;3.80;;;;;;;20.43;43.63;97040.56;10400142;28;20590;-53
2022/01/27 13:11:11;;;;;;;11.07;4.55;;;;;;;20.41;43.44;97038.16;10406214;28;20057;-52
2022/01/27 13:16:45;;;;;;;11.27;4.38;;;;;;;20.40;43.58;97033.84;10406421;28;20057;-53
2022/01/27 13:22:08;;;;;;;10.27;4.72;;;;;;;20.39;43.38;97018.75;10403596;28;20049;-53
2022/01/27 13:27:28;;;;;;;11.07;4.43;;;;;;;20.38;43.46;97021.78;10403235;28;20091;-53
2022/01/27 13:32:48;;;;;;;12.82;4.35;;;;;;;20.38;43.34;97027.97;10399475;28;20715;-53
2022/01/27 13:38:27;;;;;;;11.23;4.38;;;;;;;20.35;43.47;97024.00;10406419;28;20057;-53
2022/01/27 13:43:52;;;;;;;10.02;4.18;;;;;;;20.33;43.37;97015.44;10390260;28;20702;-53
2022/01/27 13:49:23;;;;;;;11.43;4.65;;;;;;;20.34;43.33;97019.72;10397655;28;20099;-51
2022/01/27 13:54:49;;;;;;;11.43;4.53;;;;;;;20.31;43.37;97014.97;10403841;28;20049;-53
2022/01/27 14:00:11;;;;;;;13.32;5.00;;;;;;;20.30;43.37;97017.97;10405596;28;20107;-53
2022/01/27 14:05:34;;;;;;;14.60;5.47;;;;;;;20.29;43.58;97021.81;10406803;28;20048;-53
2022/01/27 14:10:54;;;;;;;14.48;4.88;;;;;;;20.27;43.69;97019.44;10407727;28;20034;-53
2022/01/27 14:16:23;;;;;;;13.75;5.20;;;;;;;20.25;43.84;97024.38;10397899;28;20061;-50
2022/01/27 14:21:44;;;;;;;;;;;;;;;20.24;44.08;97020.06;10395896;28;20041;-53
2022/01/27 14:27:04;;;;;;;11.32;4.35;;;;;;;20.24;43.90;97032.81;10400815;28;19927;-52
2022/01/27 14:32:23;;;;;;;10.20;4.65;;;;;;;20.21;43.99;97034.25;10404688;28;20046;-53
2022/01/27 14:37:43;;;;;;;10.25;4.57;;;;;;;20.19;43.95;97031.06;10393460;28;20497;-53
2022/01/27 14:43:04;;;;;;;9.40;4.45;;;;;;;20.19;43.94;97024.84;10404938;28;20046;-53
2022/01/27 14:48:23;;;;;;;9.90;4.43;;;;;;;20.16;43.92;97018.19;10387759;28;20041;-53
2022/01/27 14:53:43;;;;;;;11.27;4.82;;;;;;;20.17;44.05;97038.72;10405542;28;20733;-52
2022/01/27 14:59:03;;;;;;;7.45;4.38;;;;;;;20.14;43.76;97015.00;10400439;28;20042;-50
2022/01/27 15:04:22;;;;;;;9.15;3.75;;;;;;;20.16;43.74;97020.88;10400758;28;20460;-53
2022/01/27 15:09:42;;;;;;;8.43;3.80;;;;;;;20.15;43.70;97022.03;10386783;28;20292;-52
2022/01/27 15:20:41;;;;;;;8.23;4.22;;;;;;;20.08;43.57;97008.19;10393316;28;23354;-52
2022/01/27 15:26:04;;;;;;;9.55;3.60;;;;;;;20.06;43.36;96997.69;10406893;28;20042;-52
2022/01/27 15:31:24;;;;;;;7.88;3.88;;;;;;;20.05;43.53;97001.53;10396922;28;20049;-51
2022/01/27 15:36:47;;;;;;;6.50;3.42;;;;;;;20.02;43.39;96994.03;10399511;28;20543;-53
2022/01/27 15:42:06;;;;;;;9.02;3.40;;;;;;;20.03;43.22;97001.06;10408252;28;20498;-53
2022/01/27 15:47:27;;;;;;;8.38;3.38;;;;;;;20.01;43.24;97002.47;10399605;28;20066;-53
2022/01/27 15:52:47;;;;;;;6.40;3.45;;;;;;;19.99;43.14;96993.88;10403152;28;20050;-50
2022/01/27 15:58:07;;;;;;;6.03;3.13;;;;;;;19.98;43.19;97008.53;10400577;28;20049;-53
2022/01/27 16:03:26;;;;;;;7.15;3.70;;;;;;;19.96;43.07;97003.44;10396853;28;20045;-53
2022/01/27 16:08:46;;;;;;;5.75;2.90;;;;;;;19.92;42.98;96992.47;10400241;28;20687;-52
2022/01/27 16:14:06;;;;;;;7.32;3.25;;;;;;;19.91;43.07;96996.28;10409132;28;20057;-53
2022/01/27 16:19:26;;;;;;;5.43;2.70;;;;;;;19.91;42.92;96988.16;10406585;28;20053;-52
2022/01/27 16:24:46;;;;;;;7.47;3.10;;;;;;;19.88;42.92;96983.41;10405519;28;20037;-52
2022/01/27 16:30:07;;;;;;;7.80;3.03;;;;;;;19.89;42.83;96984.19;10406532;28;20128;-51
2022/01/27 16:35:26;;;;;;;5.15;2.90;;;;;;;19.86;42.62;96980.25;10405673;28;20060;-52
2022/01/27 16:40:46;;;;;;;5.72;2.78;;;;;;;19.85;42.69;96980.56;10384963;28;20050;-52
2022/01/27 16:46:06;;;;;;;5.57;2.80;;;;;;;19.84;42.60;96974.38;10405253;28;20508;-52
2022/01/27 16:51:26;;;;;;;6.35;2.60;;;;;;;19.82;41.75;96973.91;10398937;28;20054;-54
2022/01/27 16:56:46;;;;;;;4.10;2.72;;;;;;;19.79;42.33;96973.75;10404003;28;20061;-52
2022/01/27 17:02:06;;;;;;;3.97;2.47;;;;;;;19.71;39.22;96983.41;10406115;28;20111;-52
2022/01/27 17:07:26;;;;;;;4.97;2.55;;;;;;;19.68;41.22;96984.03;10403607;28;20049;-53
2022/01/27 17:12:46;;;;;;;6.22;2.80;;;;;;;19.69;41.85;96982.94;10407710;28;20045;-53
2022/01/27 17:18:07;;;;;;;4.63;2.50;;;;;;;19.69;42.40;96977.53;10405914;28;20053;-52
2022/01/27 17:23:27;;;;;;;4.93;2.50;;;;;;;19.68;42.63;96978.63;10405183;28;20049;-53
2022/01/27 17:28:47;;;;;;;4.43;2.50;;;;;;;19.69;43.19;96974.84;10398759;28;20057;-51
2022/01/27 17:34:06;;;;;;;4.90;2.30;;;;;;;19.69;43.34;96956.69;10402204;28;20033;-52
2022/01/27 17:39:27;;;;;;;4.30;2.25;;;;;;;19.68;43.44;96963.25;10401138;28;20057;-53
2022/01/27 17:44:48;;;;;;;7.53;2.45;;;;;;;19.68;43.52;96974.06;10397332;28;20053;-53
2022/01/27 17:50:08;;;;;;;5.53;2.17;;;;;;;19.66;43.76;96959.25;10400193;28;20094;-53
2022/01/27 17:55:32;;;;;;;4.60;1.85;;;;;;;19.65;43.60;96963.88;10401075;28;20053;-53
2022/01/27 18:00:51;;;;;;;4.80;2.00;;;;;;;19.64;43.71;96978.50;10401992;28;20057;-53
2022/01/27 18:06:11;;;;;;;5.93;2.30;;;;;;;19.62;43.72;96948.31;10399438;28;20060;-53
2022/01/27 18:11:32;;;;;;;3.72;1.95;;;;;;;19.60;43.76;96941.63;10403534;28;20045;-50
2022/01/27 18:16:54;;;;;;;5.10;2.10;;;;;;;19.59;43.54;96934.63;10403993;28;20037;-52
2022/01/27 18:22:14;;;;;;;3.75;1.90;;;;;;;19.56;43.95;96928.75;10400978;28;20052;-57
2022/01/27 18:27:34;;;;;;;4.68;2.03;;;;;;;19.54;43.83;96919.38;10401432;28;20634;-56
2022/01/27 18:32:53;;;;;;;3.90;2.13;;;;;;;19.53;43.87;96928.59;10396573;28;20448;-57
2022/01/27 18:38:13;;;;;;;2.17;1.60;;;;;;;19.53;44.03;96928.59;10397267;28;20639;-52
2022/01/27 18:43:33;;;;;;;4.28;1.95;;;;;;;19.51;44.20;96926.22;10401942;28;20037;-53
2022/01/27 18:48:56;;;;;;;5.50;1.65;;;;;;;19.50;43.88;96940.84;10398851;28;20072;-53
2022/01/27 18:54:16;;;;;;;3.53;1.83;;;;;;;19.50;44.07;96940.84;10414480;28;20041;-54
2022/01/27 18:59:36;;;;;;;2.78;1.70;;;;;;;19.48;44.03;96943.09;10399663;28;20103;-53
2022/01/27 19:04:56;;;;;;;4.43;1.75;;;;;;;19.48;44.02;96951.19;10397345;28;20510;-50
2022/01/27 19:10:15;;;;;;;4.43;1.90;;;;;;;19.45;44.49;96915.91;10413227;28;20133;-53
2022/01/27 19:15:38;;;;;;;3.90;1.58;;;;;;;19.44;44.69;96925.13;10398178;28;20049;-50
2022/01/27 19:20:58;;;;;;;4.95;1.98;;;;;;;19.42;44.80;96936.22;10400259;28;20072;-51
2022/01/27 19:26:18;;;;;;;3.47;1.85;;;;;;;19.42;44.73;96944.34;10400980;28;20041;-48
2022/01/27 19:31:38;;;;;;;4.13;1.70;;;;;;;19.41;44.94;96942.75;10393555;28;20061;-48
2022/01/27 19:36:57;;;;;;;4.13;2.00;;;;;;;19.39;44.61;96939.59;10399572;28;20060;-49
2022/01/27 19:42:17;;;;;;;2.88;1.70;;;;;;;19.39;44.63;96936.88;10398472;28;20597;-52
2022/01/27 19:47:36;;;;;;;3.25;1.90;;;;;;;19.40;44.52;96921.47;10411920;28;20034;-51
2022/01/27 19:52:56;;;;;;;1.90;1.58;;;;;;;19.39;44.57;96911.78;10410537;28;20041;-53
2022/01/27 19:58:16;;;;;;;2.10;1.52;;;;;;;19.39;44.16;96909.88;10397345;28;20061;-52
2022/01/27 20:03:36;;;;;;;3.17;1.50;;;;;;;19.40;44.06;96924.16;10414105;28;20037;-50
2022/01/27 20:08:57;;;;;;;4.35;1.55;;;;;;;19.43;44.45;96900.00;10395956;28;20054;-53
2022/01/27 20:14:16;;;;;;;8.25;1.58;;;;;;;19.45;44.43;96888.88;10392970;28;20116;-52
2022/01/27 20:19:37;;;;;;;5.80;1.80;;;;;;;19.46;44.63;96910.16;10398036;28;20716;-53
2022/01/27 20:24:56;;;;;;;4.30;1.50;;;;;;;19.48;44.57;96918.75;10395235;28;20096;-51
2022/01/27 20:30:17;;;;;;;3.10;1.40;;;;;;;19.51;44.75;96907.31;10400225;28;20057;-53
2022/01/27 20:35:37;;;;;;;5.53;1.40;;;;;;;19.55;44.82;96888.53;10399247;28;20579;-53
2022/01/27 20:40:57;;;;;;;2.60;1.55;;;;;;;19.55;45.08;96883.94;10438604;28;20095;-51
2022/01/27 20:46:16;;;;;;;3.63;1.42;;;;;;;19.59;44.84;96880.59;10412866;28;20644;-53
2022/01/27 20:51:36;;;;;;;3.17;1.50;;;;;;;19.59;44.89;96872.47;10391868;28;20049;-53
2022/01/27 20:56:58;;;;;;;2.08;1.30;;;;;;;19.61;44.87;96865.63;10404016;28;20041;-52
2022/01/27 21:02:19;;;;;;;2.45;1.33;;;;;;;19.64;44.98;96886.63;10401756;28;20053;-53
2022/01/27 21:07:38;;;;;;;4.93;1.77;;;;;;;19.65;44.99;96901.69;10402862;28;20508;-53
2022/01/27 21:12:58;;;;;;;2.13;1.17;;;;;;;19.65;44.73;96876.59;10402292;28;20503;-52
2022/01/27 21:18:18;;;;;;;3.97;1.95;;;;;;;19.64;44.91;96873.09;10400994;28;20061;-52
2022/01/27 21:23:39;;;;;;;3.05;1.38;;;;;;;19.63;44.78;96870.72;10400797;28;20052;-53
2022/01/27 21:28:58;;;;;;;2.35;1.27;;;;;;;19.64;44.81;96872.28;10401344;28;20061;-53
2022/01/27 21:34:26;;;;;;;2.00;1.30;;;;;;;19.65;44.61;96861.16;10398841;28;20058;-52
2022/01/27 21:39:46;;;;;;;3.50;1.30;;;;;;;19.66;44.72;96870.88;10394156;28;20045;-52
2022/01/27 21:45:06;;;;;;;3.17;1.35;;;;;;;19.68;44.75;96878.63;10403353;28;20933;-52
2022/01/27 21:50:26;;;;;;;3.75;1.30;;;;;;;19.70;44.90;96888.03;10399438;28;20064;-52
2022/01/27 21:55:45;;;;;;;3.38;1.23;;;;;;;19.73;45.06;96889.31;10401100;28;20061;-53
2022/01/27 22:01:07;;;;;;;3.42;1.35;;;;;;;19.74;45.06;96886.28;10402700;28;20081;-53
2022/01/27 22:06:27;;;;;;;4.18;1.40;;;;;;;19.77;44.88;96890.25;10403937;28;20050;-53
2022/01/27 22:11:47;;;;;;;2.17;1.23;;;;;;;19.78;44.92;96901.84;10403036;28;20053;-53
2022/01/27 22:17:06;;;;;;;3.30;1.40;;;;;;;19.82;44.93;96902.81;10398299;28;20061;-53
2022/01/27 22:22:33;;;;;;;5.63;1.40;;;;;;;19.83;44.71;96907.88;10401813;28;20045;-52
2022/01/27 22:27:53;;;;;;;3.30;1.50;;;;;;;19.86;44.82;96912.66;10400600;28;20439;-52
2022/01/27 22:33:12;;;;;;;1.92;1.27;;;;;;;19.86;44.63;96915.34;10389612;28;20084;-53
2022/01/27 22:38:32;;;;;;;1.75;1.20;;;;;;;19.88;44.68;96907.72;10396697;28;20509;-53
2022/01/27 22:43:52;;;;;;;2.28;1.10;;;;;;;19.88;44.55;96902.31;10396134;28;20052;-53
2022/01/27 22:49:11;;;;;;;3.70;1.17;;;;;;;19.89;44.52;96909.28;10399058;28;20056;-50
2022/01/27 22:54:31;;;;;;;2.65;1.30;;;;;;;19.90;44.41;96897.38;10397788;28;20748;-52
2022/01/27 22:59:50;;;;;;;3.03;1.30;;;;;;;19.93;44.34;96907.56;10405538;28;20393;-53
2022/01/27 23:05:09;;;;;;;2.33;1.38;;;;;;;19.94;44.32;96908.34;10395916;28;20677;-53
2022/01/27 23:10:29;;;;;;;1.83;1.15;;;;;;;19.93;44.34;96904.03;10402352;28;20472;-52
2022/01/27 23:16:05;;;;;;;2.72;1.42;;;;;;;19.92;44.30;96905.94;10398327;28;20061;-52
2022/01/27 23:21:31;;;;;;;2.20;1.05;;;;;;;19.94;44.38;96902.94;10385166;28;20052;-53
2022/01/27 23:26:53;;;;;;;2.22;1.40;;;;;;;19.95;44.34;96905.31;10389269;28;20469;-53
2022/01/27 23:32:13;;;;;;;1.55;1.08;;;;;;;19.98;44.22;96908.50;10397250;28;20455;-53
2022/01/27 23:48:49;;;;;;;2.45;1.00;;;;;;;19.92;44.04;96892.44;10402364;28;20041;-53
2022/01/27 23:59:59;;;;;;;2.65;1.20;;;;;;;19.90;43.94;96904.69;10399880;28;20057;-51
